Terminal Aerodrome Forecast
Issued by NWS

Home | Current Version | Previous Version | Text Only | Print | Product List | Glossary On
Versions: 1 2 3 4 5 6 7 8 9 10 11 12 13 14 15 16 17 18 19 20 21 22 23 24 25
000
FTUS43 KDLH 032157 AAB
TAFBRD
TAF AMD
KBRD 032157Z 0322/0418 32011KT P6SM OVC060
     FM040000 31003KT P6SM SCT060
     FM041500 33005G15KT P6SM SKC=

USA.gov is the U.S. government's official web portal to all federal, state and local government web resources and services.